Caribbean Princess — ZCDG8 — position and weather

sailwx.info

Track history (hours):
 
Tides and Currents Weather Stations Pressure Air Temp Water Temp Dewpoint Dewpoint Depression Visibility Wind Speed Wind Dir Waves Ship Positions

Caribbean Princess

Operator: Princess Cruises

Last reported at 2014-Sep-29 22:32 UTC. Time now 2014-Sep-30 10:10 UTC.
Position N 25°43' W 079°47'.

Type: Passenger vessel. MMSI: 310423000.

Date/timePositionNaut miles runAvg speedWind from/ knotsBaromVisibWave heightAir tempDewpointWater temp
2014-Sep-29 22:32N 25°43' W 079°47'1717.3
2014-Sep-29 21:33N 25°57' W 079°58'1211.9
2014-Sep-29 20:33N 26°06' W 080°07'0 0.2
2014-Sep-29 19:29N 26°06' W 080°07'0 0.0
2014-Sep-29 18:32N 26°06' W 080°07'0 0.0
2014-Sep-29 17:32N 26°06' W 080°07'0 0.0
2014-Sep-29 16:32N 26°06' W 080°07'0 0.0
2014-Sep-29 15:32N 26°06' W 080°07'0 0.0
2014-Sep-29 14:32N 26°06' W 080°07'0 0.0
2014-Sep-29 13:32N 26°06' W 080°07'0 0.0
2014-Sep-29 12:32N 26°06' W 080°07'0 0.0
2014-Sep-29 11:32N 26°06' W 080°07'0 0.0
2014-Sep-29 10:33N 26°06' W 080°07'8 7.8
2014-Sep-29 09:33N 26°06' W 079°59'1010.3
2014-Sep-29 08:33N 26°08' W 079°47'1111.3
2014-Sep-29 07:33N 26°11' W 079°35'1111.0
2014-Sep-29 06:33N 26°13' W 079°23'24410.8
2014-Sep-28 08:00N 24°42' W 075°12'   080 / 201013.110.8 0.527.523.930.0
2014-Sep-26 01:26N 26°13' W 079°18'1011.7
2014-Sep-26 00:33N 26°11' W 079°29'1212.3
2014-Sep-25 23:33N 26°09' W 079°43'1211.9
2014-Sep-25 22:33N 26°07' W 079°56'1010.4
2014-Sep-25 21:34N 26°06' W 080°07'0 0.3
2014-Sep-25 20:31N 26°06' W 080°07'0 0.0
2014-Sep-25 19:28N 26°06' W 080°07'0 0.0
2014-Sep-25 18:31N 26°06' W 080°07'0 0.0
2014-Sep-25 17:19N 26°06' W 080°07'0 0.0
2014-Sep-25 16:31N 26°06' W 080°07'0 0.0
2014-Sep-25 15:22N 26°06' W 080°07'0 0.0
2014-Sep-25 14:25N 26°06' W 080°07'0 0.0
2014-Sep-25 13:25N 26°06' W 080°07'0 0.0
2014-Sep-25 12:34N 26°06' W 080°07'0 0.0
2014-Sep-25 11:34N 26°06' W 080°07'0 0.0
2014-Sep-25 10:33N 26°06' W 080°07'6 5.9
2014-Sep-25 09:33N 26°05' W 080°01'1212.3
2014-Sep-25 08:33N 25°55' W 079°53'1514.0
2014-Sep-25 07:31N 25°40' W 079°53'  
2014-Sep-22 09:00N 19°30' W 081°48'25310.1 110 / 101012.610.8 0.528.525.031.0
2014-Sep-21 08:00N 23°42' W 081°24'15115.8 120 / 61013.510.8 0.525.522.631.0
2014-Sep-20 22:28N 25°45' W 079°48'1718.4
2014-Sep-20 21:33N 25°59' W 079°59'1010.1
2014-Sep-20 20:33N 26°06' W 080°07'0 0.0
2014-Sep-20 19:26N 26°06' W 080°07'0 0.0
2014-Sep-20 18:29N 26°06' W 080°07'0 0.0
2014-Sep-20 17:29N 26°06' W 080°07'0 0.0
2014-Sep-20 16:29N 26°06' W 080°07'0 0.0
2014-Sep-20 15:32N 26°06' W 080°07'0 0.0
2014-Sep-20 14:32N 26°06' W 080°07'0 0.0
2014-Sep-20 13:32N 26°06' W 080°07'0 0.0
2014-Sep-20 12:34N 26°06' W 080°07'0 0.0
2014-Sep-20 11:25N 26°06' W 080°07'0 0.0
2014-Sep-20 10:33N 26°06' W 080°07'7 7.0
2014-Sep-20 09:33N 26°06' W 079°60'1111.3
2014-Sep-20 08:33N 26°08' W 079°47'1211.9
2014-Sep-20 07:33N 26°11' W 079°34'1312.7
2014-Sep-20 06:33N 26°13' W 079°20'  
Track history (hours):
 
Tides and Currents Weather Stations Pressure Air Temp Water Temp Dewpoint Dewpoint Depression Visibility Wind Speed Wind Dir Waves Ship Positions

Caribbean Princess

Operator: Princess Cruises

Last reported at 2014-Sep-29 22:32 UTC. Time now 2014-Sep-30 10:10 UTC.
Position N 25°43' W 079°47'.

Type: Passenger vessel. MMSI: 310423000.

Date/timePositionNaut miles runAvg speedWind from/ knotsBaromVisibWave heightAir tempDewpointWater temp
2014-Sep-29 22:32N 25°43' W 079°47'1717.3
2014-Sep-29 21:33N 25°57' W 079°58'1211.9
2014-Sep-29 20:33N 26°06' W 080°07'0 0.2
2014-Sep-29 19:29N 26°06' W 080°07'0 0.0
2014-Sep-29 18:32N 26°06' W 080°07'0 0.0
2014-Sep-29 17:32N 26°06' W 080°07'0 0.0
2014-Sep-29 16:32N 26°06' W 080°07'0 0.0
2014-Sep-29 15:32N 26°06' W 080°07'0 0.0
2014-Sep-29 14:32N 26°06' W 080°07'0 0.0
2014-Sep-29 13:32N 26°06' W 080°07'0 0.0
2014-Sep-29 12:32N 26°06' W 080°07'0 0.0
2014-Sep-29 11:32N 26°06' W 080°07'0 0.0
2014-Sep-29 10:33N 26°06' W 080°07'8 7.8
2014-Sep-29 09:33N 26°06' W 079°59'1010.3
2014-Sep-29 08:33N 26°08' W 079°47'1111.3
2014-Sep-29 07:33N 26°11' W 079°35'1111.0
2014-Sep-29 06:33N 26°13' W 079°23'24410.8
2014-Sep-28 08:00N 24°42' W 075°12'   080 / 201013.110.8 0.527.523.930.0
2014-Sep-26 01:26N 26°13' W 079°18'1011.7
2014-Sep-26 00:33N 26°11' W 079°29'1212.3
2014-Sep-25 23:33N 26°09' W 079°43'1211.9
2014-Sep-25 22:33N 26°07' W 079°56'1010.4
2014-Sep-25 21:34N 26°06' W 080°07'0 0.3
2014-Sep-25 20:31N 26°06' W 080°07'0 0.0
2014-Sep-25 19:28N 26°06' W 080°07'0 0.0
2014-Sep-25 18:31N 26°06' W 080°07'0 0.0
2014-Sep-25 17:19N 26°06' W 080°07'0 0.0
2014-Sep-25 16:31N 26°06' W 080°07'0 0.0
2014-Sep-25 15:22N 26°06' W 080°07'0 0.0
2014-Sep-25 14:25N 26°06' W 080°07'0 0.0
2014-Sep-25 13:25N 26°06' W 080°07'0 0.0
2014-Sep-25 12:34N 26°06' W 080°07'0 0.0
2014-Sep-25 11:34N 26°06' W 080°07'0 0.0
2014-Sep-25 10:33N 26°06' W 080°07'6 5.9
2014-Sep-25 09:33N 26°05' W 080°01'1212.3
2014-Sep-25 08:33N 25°55' W 079°53'1514.0
2014-Sep-25 07:31N 25°40' W 079°53'  
2014-Sep-22 09:00N 19°30' W 081°48'25310.1 110 / 101012.610.8 0.528.525.031.0
2014-Sep-21 08:00N 23°42' W 081°24'15115.8 120 / 61013.510.8 0.525.522.631.0
2014-Sep-20 22:28N 25°45' W 079°48'1718.4
2014-Sep-20 21:33N 25°59' W 079°59'1010.1
2014-Sep-20 20:33N 26°06' W 080°07'0 0.0
2014-Sep-20 19:26N 26°06' W 080°07'0 0.0
2014-Sep-20 18:29N 26°06' W 080°07'0 0.0
2014-Sep-20 17:29N 26°06' W 080°07'0 0.0
2014-Sep-20 16:29N 26°06' W 080°07'0 0.0
2014-Sep-20 15:32N 26°06' W 080°07'0 0.0
2014-Sep-20 14:32N 26°06' W 080°07'0 0.0
2014-Sep-20 13:32N 26°06' W 080°07'0 0.0
2014-Sep-20 12:34N 26°06' W 080°07'0 0.0
2014-Sep-20 11:25N 26°06' W 080°07'0 0.0
2014-Sep-20 10:33N 26°06' W 080°07'7 7.0
2014-Sep-20 09:33N 26°06' W 079°60'1111.3
2014-Sep-20 08:33N 26°08' W 079°47'1211.9
2014-Sep-20 07:33N 26°11' W 079°34'1312.7
2014-Sep-20 06:33N 26°13' W 079°20'  

Dump ship's entire track history